Suehiro Maru No.8 — JK5423 — position and weather

sailwx.info

Track history (hours):
 
Tides and Currents Weather Stations Pressure Air Temp Water Temp Dewpoint Dewpoint Depression Visibility Wind Speed Wind Dir Waves Ship Positions

Suehiro Maru No.8

Last reported at 2016-Dec-05 06:31 UTC. Time now 2016-Dec-07 20:21 UTC.
Position N 35°12' E 139°45'.

Length 88 m; draft 5.2 m.

Type: Cargo ship. MMSI: 431400446.

Date/timePositionNaut miles runAvg speedWind from/ knotsBaromVisibWave heightAir tempDewpointWater temp
2016-Dec-05 06:31N 35°12' E 139°45'1212.0
2016-Dec-05 05:33N 35°23' E 139°42'1312.7
2016-Dec-05 04:33N 35°34' E 139°51'4 3.9
2016-Dec-05 03:33N 35°37' E 139°49'0 0.0
2016-Dec-05 02:33N 35°37' E 139°49'0 0.0
2016-Dec-05 01:33N 35°37' E 139°49'0 0.0
2016-Dec-05 00:33N 35°37' E 139°49'0 0.0
2016-Dec-04 23:33N 35°37' E 139°49'0 0.0
2016-Dec-04 22:33N 35°37' E 139°49'2 2.1
2016-Dec-04 21:33N 35°36' E 139°50'2 1.9
2016-Dec-04 20:31N 35°35' E 139°53'0 0.0
2016-Dec-04 19:31N 35°35' E 139°53'0 0.0
2016-Dec-04 18:31N 35°35' E 139°53'0 0.0
2016-Dec-04 17:31N 35°35' E 139°53'0 0.0
2016-Dec-04 16:31N 35°35' E 139°53'0 0.0
2016-Dec-04 15:31N 35°35' E 139°53'0 0.0
2016-Dec-04 14:31N 35°35' E 139°53'0 0.0
2016-Dec-04 13:31N 35°35' E 139°53'0 0.1
2016-Dec-04 12:31N 35°35' E 139°53'0 0.0
2016-Dec-04 11:31N 35°35' E 139°53'0 0.0
2016-Dec-04 10:31N 35°35' E 139°53'0 0.1
2016-Dec-04 09:31N 35°35' E 139°53'2 1.6
2016-Dec-04 08:33N 35°36' E 139°55'5 0.2
2016-Dec-03 07:33N 35°40' E 139°59'1211.5
2016-Dec-03 06:33N 35°30' E 139°51'10 9.7
2016-Dec-03 05:33N 35°28' E 139°39'0 0.0
2016-Dec-03 04:33N 35°28' E 139°39'0 0.0
2016-Dec-03 03:34N 35°28' E 139°39'0 0.0
2016-Dec-03 02:34N 35°28' E 139°39'2 2.0
2016-Dec-03 01:33N 35°27' E 139°41'4 3.8
2016-Dec-03 00:31N 35°24' E 139°45'0 0.0
2016-Dec-02 23:28N 35°24' E 139°45'0 0.0
2016-Dec-02 22:31N 35°24' E 139°45'0 0.0
2016-Dec-02 21:31N 35°24' E 139°45'0 0.0
2016-Dec-02 20:31N 35°24' E 139°45'0 0.0
2016-Dec-02 19:31N 35°24' E 139°45'0 0.0
2016-Dec-02 18:31N 35°24' E 139°45'0 0.0
2016-Dec-02 17:31N 35°24' E 139°45'0 0.0
2016-Dec-02 16:31N 35°24' E 139°45'0 0.0
2016-Dec-02 15:31N 35°24' E 139°45'0 0.0
2016-Dec-02 14:31N 35°24' E 139°45'0 0.0
2016-Dec-02 13:31N 35°24' E 139°45'0 0.0
2016-Dec-02 12:31N 35°24' E 139°45'0 0.0
2016-Dec-02 11:31N 35°24' E 139°45'0 0.1
2016-Dec-02 10:31N 35°24' E 139°45'0 0.0
2016-Dec-02 09:31N 35°24' E 139°45'3 3.1
2016-Dec-02 08:33N 35°22' E 139°44'1211.5
2016-Dec-02 07:33N 35°10' E 139°47'  
2016-Nov-29 20:22N 34°06' E 134°57'1113.4
2016-Nov-29 19:33N 34°14' E 135°05'2 2.2
2016-Nov-29 18:33N 34°14' E 135°08'0 0.0
2016-Nov-29 17:34N 34°14' E 135°08'0 0.0
2016-Nov-29 16:33N 34°14' E 135°08'0 0.0
2016-Nov-29 15:33N 34°14' E 135°08'0 0.0
2016-Nov-29 14:34N 34°14' E 135°08'0 0.0
2016-Nov-29 13:33N 34°14' E 135°08'0 0.0
2016-Nov-29 12:33N 34°14' E 135°08'0 0.0
2016-Nov-29 11:33N 34°14' E 135°08'2 2.1
2016-Nov-29 10:33N 34°14' E 135°05'  
2016-Nov-26 07:33N 35°12' E 139°46'1312.7
2016-Nov-26 06:34N 35°25' E 139°43'1312.5
2016-Nov-26 05:33N 35°36' E 139°50'2 2.1
2016-Nov-26 04:33N 35°37' E 139°49'0 0.0
2016-Nov-26 03:33N 35°37' E 139°49'0 0.0
2016-Nov-26 02:33N 35°37' E 139°49'0 0.0
2016-Nov-26 01:33N 35°37' E 139°49'0 0.0
2016-Nov-26 00:33N 35°37' E 139°49'0 0.0
2016-Nov-25 23:33N 35°37' E 139°49'0 0.0
2016-Nov-25 22:33N 35°37' E 139°49'8 7.7
2016-Nov-25 21:33N 35°30' E 139°52'1212.5
2016-Nov-25 20:33N 35°20' E 139°44'1211.8
2016-Nov-25 19:33N 35°08' E 139°44'  
Track history (hours):
 
Tides and Currents Weather Stations Pressure Air Temp Water Temp Dewpoint Dewpoint Depression Visibility Wind Speed Wind Dir Waves Ship Positions

Suehiro Maru No.8

Last reported at 2016-Dec-05 06:31 UTC. Time now 2016-Dec-07 20:21 UTC.
Position N 35°12' E 139°45'.

Length 88 m; draft 5.2 m.

Type: Cargo ship. MMSI: 431400446.

Date/timePositionNaut miles runAvg speedWind from/ knotsBaromVisibWave heightAir tempDewpointWater temp
2016-Dec-05 06:31N 35°12' E 139°45'1212.0
2016-Dec-05 05:33N 35°23' E 139°42'1312.7
2016-Dec-05 04:33N 35°34' E 139°51'4 3.9
2016-Dec-05 03:33N 35°37' E 139°49'0 0.0
2016-Dec-05 02:33N 35°37' E 139°49'0 0.0
2016-Dec-05 01:33N 35°37' E 139°49'0 0.0
2016-Dec-05 00:33N 35°37' E 139°49'0 0.0
2016-Dec-04 23:33N 35°37' E 139°49'0 0.0
2016-Dec-04 22:33N 35°37' E 139°49'2 2.1
2016-Dec-04 21:33N 35°36' E 139°50'2 1.9
2016-Dec-04 20:31N 35°35' E 139°53'0 0.0
2016-Dec-04 19:31N 35°35' E 139°53'0 0.0
2016-Dec-04 18:31N 35°35' E 139°53'0 0.0
2016-Dec-04 17:31N 35°35' E 139°53'0 0.0
2016-Dec-04 16:31N 35°35' E 139°53'0 0.0
2016-Dec-04 15:31N 35°35' E 139°53'0 0.0
2016-Dec-04 14:31N 35°35' E 139°53'0 0.0
2016-Dec-04 13:31N 35°35' E 139°53'0 0.1
2016-Dec-04 12:31N 35°35' E 139°53'0 0.0
2016-Dec-04 11:31N 35°35' E 139°53'0 0.0
2016-Dec-04 10:31N 35°35' E 139°53'0 0.1
2016-Dec-04 09:31N 35°35' E 139°53'2 1.6
2016-Dec-04 08:33N 35°36' E 139°55'5 0.2
2016-Dec-03 07:33N 35°40' E 139°59'1211.5
2016-Dec-03 06:33N 35°30' E 139°51'10 9.7
2016-Dec-03 05:33N 35°28' E 139°39'0 0.0
2016-Dec-03 04:33N 35°28' E 139°39'0 0.0
2016-Dec-03 03:34N 35°28' E 139°39'0 0.0
2016-Dec-03 02:34N 35°28' E 139°39'2 2.0
2016-Dec-03 01:33N 35°27' E 139°41'4 3.8
2016-Dec-03 00:31N 35°24' E 139°45'0 0.0
2016-Dec-02 23:28N 35°24' E 139°45'0 0.0
2016-Dec-02 22:31N 35°24' E 139°45'0 0.0
2016-Dec-02 21:31N 35°24' E 139°45'0 0.0
2016-Dec-02 20:31N 35°24' E 139°45'0 0.0
2016-Dec-02 19:31N 35°24' E 139°45'0 0.0
2016-Dec-02 18:31N 35°24' E 139°45'0 0.0
2016-Dec-02 17:31N 35°24' E 139°45'0 0.0
2016-Dec-02 16:31N 35°24' E 139°45'0 0.0
2016-Dec-02 15:31N 35°24' E 139°45'0 0.0
2016-Dec-02 14:31N 35°24' E 139°45'0 0.0
2016-Dec-02 13:31N 35°24' E 139°45'0 0.0
2016-Dec-02 12:31N 35°24' E 139°45'0 0.0
2016-Dec-02 11:31N 35°24' E 139°45'0 0.1
2016-Dec-02 10:31N 35°24' E 139°45'0 0.0
2016-Dec-02 09:31N 35°24' E 139°45'3 3.1
2016-Dec-02 08:33N 35°22' E 139°44'1211.5
2016-Dec-02 07:33N 35°10' E 139°47'  
2016-Nov-29 20:22N 34°06' E 134°57'1113.4
2016-Nov-29 19:33N 34°14' E 135°05'2 2.2
2016-Nov-29 18:33N 34°14' E 135°08'0 0.0
2016-Nov-29 17:34N 34°14' E 135°08'0 0.0
2016-Nov-29 16:33N 34°14' E 135°08'0 0.0
2016-Nov-29 15:33N 34°14' E 135°08'0 0.0
2016-Nov-29 14:34N 34°14' E 135°08'0 0.0
2016-Nov-29 13:33N 34°14' E 135°08'0 0.0
2016-Nov-29 12:33N 34°14' E 135°08'0 0.0
2016-Nov-29 11:33N 34°14' E 135°08'2 2.1
2016-Nov-29 10:33N 34°14' E 135°05'  
2016-Nov-26 07:33N 35°12' E 139°46'1312.7
2016-Nov-26 06:34N 35°25' E 139°43'1312.5
2016-Nov-26 05:33N 35°36' E 139°50'2 2.1
2016-Nov-26 04:33N 35°37' E 139°49'0 0.0
2016-Nov-26 03:33N 35°37' E 139°49'0 0.0
2016-Nov-26 02:33N 35°37' E 139°49'0 0.0
2016-Nov-26 01:33N 35°37' E 139°49'0 0.0
2016-Nov-26 00:33N 35°37' E 139°49'0 0.0
2016-Nov-25 23:33N 35°37' E 139°49'0 0.0
2016-Nov-25 22:33N 35°37' E 139°49'8 7.7
2016-Nov-25 21:33N 35°30' E 139°52'1212.5
2016-Nov-25 20:33N 35°20' E 139°44'1211.8
2016-Nov-25 19:33N 35°08' E 139°44'  

Dump ship's entire track history